createdAt,value
2019-03-16T00:00:50.011Z,22.17
2019-03-16T00:03:24.066Z,22.00
2019-03-16T00:05:58.409Z,21.85
2019-03-16T00:08:32.554Z,21.25
2019-03-16T00:11:07.124Z,22.22
2019-03-16T00:13:41.143Z,21.17
2019-03-16T00:16:15.404Z,21.62
2019-03-16T00:18:49.566Z,20.60
2019-03-16T00:21:23.757Z,22.22
2019-03-16T00:23:57.745Z,21.85
2019-03-16T00:26:32.339Z,21.02
2019-03-16T00:29:06.788Z,22.20
2019-03-16T00:31:40.995Z,21.73
2019-03-16T00:34:15.284Z,21.85
2019-03-16T00:36:49.500Z,21.65
2019-03-16T00:39:23.642Z,22.42
2019-03-16T00:41:57.945Z,21.80
2019-03-16T00:44:32.212Z,21.30
2019-03-16T00:47:06.507Z,21.65
2019-03-16T00:49:40.755Z,22.13
2019-03-16T00:52:14.922Z,21.90
2019-03-16T00:54:49.237Z,20.92
2019-03-16T00:57:23.235Z,22.40
2019-03-16T00:59:57.650Z,21.60
2019-03-16T01:02:33.002Z,21.52
2019-03-16T01:05:07.897Z,21.68
2019-03-16T01:07:42.001Z,21.75
2019-03-16T01:10:16.309Z,21.05
2019-03-16T01:12:50.331Z,22.25
2019-03-16T01:15:24.694Z,21.82
2019-03-16T01:17:59.111Z,21.33
2019-03-16T01:20:33.196Z,22.25
2019-03-16T01:23:07.398Z,22.22
2019-03-16T01:25:41.764Z,22.73
2019-03-16T01:28:16.143Z,21.80
2019-03-16T01:30:50.740Z,22.32
2019-03-16T01:33:24.697Z,21.95
2019-03-16T01:35:59.096Z,22.62
2019-03-16T01:38:33.296Z,22.60
2019-03-16T01:41:07.597Z,22.07
2019-03-16T01:43:41.784Z,21.12
2019-03-16T01:46:15.940Z,22.98
2019-03-16T01:48:50.204Z,22.93
2019-03-16T01:51:24.510Z,23.30
2019-03-16T01:53:59.105Z,21.97
2019-03-16T01:56:33.459Z,23.12
2019-03-16T01:59:07.502Z,22.65
2019-03-16T02:01:42.162Z,23.55
2019-03-16T02:04:16.549Z,27.07
2019-03-16T02:06:50.983Z,26.87
2019-03-16T02:09:24.987Z,25.70
2019-03-16T02:12:00.575Z,26.68
2019-03-16T02:14:34.922Z,25.97
2019-03-16T02:17:09.301Z,25.85
2019-03-16T02:19:43.458Z,26.00
2019-03-16T02:22:17.360Z,26.75
2019-03-16T02:24:51.208Z,26.93
2019-03-16T02:27:25.202Z,27.95
2019-03-16T02:29:59.215Z,27.20
2019-03-16T02:32:33.632Z,25.90
2019-03-16T02:35:08.414Z,25.55
2019-03-16T02:37:42.969Z,27.58
2019-03-16T02:40:17.292Z,28.00
2019-03-16T02:42:51.821Z,28.02
2019-03-16T02:45:26.142Z,26.68
2019-03-16T02:48:00.489Z,26.75
2019-03-16T02:50:34.613Z,25.70
2019-03-16T02:53:09.408Z,26.37
2019-03-16T02:55:43.472Z,26.95
2019-03-16T02:58:17.853Z,27.30
2019-03-16T03:00:52.079Z,26.70
2019-03-16T03:03:29.678Z,27.05
2019-03-16T03:06:02.178Z,26.35
2019-03-16T03:08:36.521Z,26.23
2019-03-16T03:11:10.622Z,26.95
2019-03-16T03:13:44.931Z,27.73
2019-03-16T03:16:19.500Z,26.35
2019-03-16T03:18:53.866Z,27.75
2019-03-16T03:21:28.023Z,27.00
2019-03-16T03:24:02.218Z,27.85
2019-03-16T03:26:36.237Z,27.00
2019-03-16T03:29:10.395Z,27.37
2019-03-16T03:31:44.474Z,29.50
2019-03-16T03:34:18.779Z,29.80
2019-03-16T03:36:53.026Z,30.90
2019-03-16T03:39:27.447Z,31.55
2019-03-16T03:42:01.860Z,31.77
2019-03-16T03:44:36.109Z,32.93
2019-03-16T03:47:10.538Z,36.05
2019-03-16T03:49:44.954Z,33.98
2019-03-16T03:52:19.272Z,32.15
2019-03-16T03:54:53.999Z,33.23
2019-03-16T03:57:28.425Z,33.33
2019-03-16T04:00:02.737Z,32.30
2019-03-16T04:02:37.528Z,31.95
2019-03-16T04:05:12.224Z,34.75
2019-03-16T04:07:46.846Z,35.48
2019-03-16T04:10:21.150Z,33.63
2019-03-16T04:12:55.520Z,33.98
2019-03-16T04:15:30.013Z,33.88
2019-03-16T04:18:04.051Z,35.08
2019-03-16T04:20:38.405Z,34.25
2019-03-16T04:23:13.458Z,34.43
2019-03-16T04:25:47.673Z,34.05
2019-03-16T04:28:21.880Z,33.80
2019-03-16T04:30:56.137Z,34.25
2019-03-16T04:33:30.416Z,33.45
2019-03-16T04:36:05.021Z,35.17
2019-03-16T04:38:38.999Z,34.13
2019-03-16T04:41:13.441Z,33.88
2019-03-16T04:43:47.754Z,33.83
2019-03-16T04:46:22.443Z,33.28
2019-03-16T04:48:56.480Z,33.00
2019-03-16T04:51:32.098Z,32.17
2019-03-16T04:54:06.267Z,30.45
2019-03-16T04:56:40.710Z,51.15
2019-03-16T04:59:15.191Z,42.85
2019-03-16T05:01:49.557Z,39.78
2019-03-16T05:04:23.676Z,39.10
2019-03-16T05:06:57.997Z,37.15
2019-03-16T05:09:32.234Z,38.75
2019-03-16T05:12:06.666Z,36.55
2019-03-16T05:14:41.141Z,35.65
2019-03-16T05:17:15.348Z,34.23
2019-03-16T05:19:49.839Z,31.75
2019-03-16T05:22:24.252Z,32.00
2019-03-16T05:24:58.701Z,30.92
2019-03-16T05:27:32.993Z,30.25
2019-03-16T05:30:07.954Z,30.25
2019-03-16T05:32:42.228Z,27.95
2019-03-16T05:35:16.640Z,27.58
2019-03-16T05:37:50.993Z,27.17
2019-03-16T05:40:25.289Z,27.32
2019-03-16T05:42:59.685Z,27.25
2019-03-16T05:45:34.000Z,27.32
2019-03-16T05:48:08.526Z,26.73
2019-03-16T05:50:42.905Z,26.82
2019-03-16T05:53:16.938Z,26.37
2019-03-16T05:55:51.200Z,27.20
2019-03-16T05:58:25.417Z,26.15
2019-03-16T06:00:59.727Z,25.80
2019-03-16T06:03:33.906Z,25.82
2019-03-16T06:06:08.175Z,25.45
2019-03-16T06:08:42.258Z,25.77
2019-03-16T06:11:16.613Z,23.62
2019-03-16T06:13:51.067Z,25.15
2019-03-16T06:16:25.287Z,25.37
2019-03-16T06:19:00.309Z,26.15
2019-03-16T06:21:34.501Z,26.37
2019-03-16T06:24:08.780Z,25.82
2019-03-16T06:26:43.138Z,25.20
2019-03-16T06:29:17.202Z,25.72
2019-03-16T06:31:51.436Z,24.80
2019-03-16T06:34:25.855Z,23.98
2019-03-16T06:37:00.009Z,23.45
2019-03-16T06:39:34.544Z,23.83
2019-03-16T15:59:46.773Z,44.40
2019-03-16T16:02:21.195Z,46.50
2019-03-16T16:04:55.521Z,44.50
2019-03-16T16:07:30.216Z,46.37
2019-03-16T16:10:04.460Z,44.93
2019-03-16T16:12:38.734Z,44.15
2019-03-16T16:15:13.363Z,44.65
2019-03-16T16:17:47.663Z,44.38
2019-03-16T16:20:22.252Z,44.33
2019-03-16T16:22:56.410Z,45.95
2019-03-16T16:25:30.623Z,44.75
2019-03-16T16:28:04.870Z,44.42
2019-03-16T16:30:39.181Z,43.70
2019-03-16T16:33:13.548Z,46.02
2019-03-16T16:35:47.829Z,44.65
2019-03-16T16:38:22.205Z,45.20
2019-03-16T16:40:56.357Z,44.63
2019-03-16T16:43:30.375Z,44.98
2019-03-16T16:46:05.880Z,45.23
2019-03-16T16:48:39.955Z,47.35
2019-03-16T16:51:13.875Z,45.33
2019-03-16T16:53:48.102Z,44.65
2019-03-16T16:56:22.170Z,45.15
2019-03-16T16:58:56.579Z,46.85
2019-03-16T17:01:30.799Z,45.73
2019-03-16T17:04:05.105Z,45.20
2019-03-16T17:06:39.429Z,44.95
2019-03-16T17:09:13.580Z,46.63
2019-03-16T17:11:47.933Z,44.40
2019-03-16T17:14:22.031Z,44.20
2019-03-16T17:16:58.559Z,44.60
2019-03-16T17:19:32.313Z,44.18
2019-03-16T17:22:06.865Z,45.35
2019-03-16T17:24:41.193Z,45.65
2019-03-16T17:27:16.400Z,46.33
2019-03-16T17:29:50.501Z,45.23
2019-03-16T17:32:24.931Z,47.10
2019-03-16T17:34:59.207Z,51.15
2019-03-16T17:37:33.836Z,53.00
2019-03-16T17:40:08.251Z,53.75
2019-03-16T17:42:43.189Z,52.75
2019-03-16T17:45:17.499Z,52.13
2019-03-16T17:47:51.608Z,52.20
2019-03-16T17:50:25.728Z,51.15
2019-03-16T17:53:00.344Z,50.40
2019-03-16T17:55:34.643Z,49.45
2019-03-16T17:58:09.188Z,50.20
2019-03-16T18:00:43.311Z,48.40
2019-03-16T18:03:17.952Z,49.45
2019-03-16T18:05:52.277Z,48.80
2019-03-16T18:08:26.537Z,48.58
2019-03-16T18:11:00.514Z,49.23
2019-03-16T18:13:35.549Z,47.98
2019-03-16T18:16:09.801Z,48.70
2019-03-16T18:18:44.321Z,48.20
2019-03-16T18:21:18.441Z,47.98
2019-03-16T18:23:52.943Z,46.08
2019-03-16T18:26:27.199Z,46.98
2019-03-16T18:29:01.492Z,45.78
2019-03-16T18:31:35.599Z,46.80
2019-03-16T18:34:09.844Z,45.92
2019-03-16T18:36:44.034Z,45.90
2019-03-16T18:39:18.234Z,46.05
2019-03-16T18:41:52.580Z,46.60
2019-03-16T18:44:26.451Z,46.08
2019-03-16T18:47:00.506Z,45.83
2019-03-16T18:49:34.742Z,44.03
2019-03-16T18:52:08.754Z,44.90
2019-03-16T18:54:42.781Z,43.80
2019-03-16T18:57:16.934Z,45.23
2019-03-16T18:59:51.246Z,43.85
2019-03-16T19:02:25.759Z,43.75
2019-03-16T19:05:00.017Z,43.15
2019-03-16T19:07:34.461Z,42.23
2019-03-16T19:10:09.620Z,42.60
2019-03-16T19:12:44.252Z,42.35
2019-03-16T19:15:18.599Z,40.98
2019-03-16T19:17:58.486Z,41.13
2019-03-16T19:20:28.792Z,42.00
2019-03-16T19:23:03.183Z,41.30
2019-03-16T19:25:37.380Z,41.77
2019-03-16T19:28:11.842Z,41.42
2019-03-16T19:30:46.200Z,41.13
2019-03-16T19:33:20.378Z,39.25
2019-03-16T19:35:54.647Z,40.03
2019-03-16T19:38:28.801Z,39.35
2019-03-16T19:41:03.164Z,40.00
2019-03-16T19:43:37.268Z,39.38
2019-03-16T19:46:11.562Z,40.70
2019-03-16T19:48:45.725Z,39.30
2019-03-16T19:51:20.589Z,38.78
2019-03-16T19:53:54.813Z,39.85
2019-03-16T19:56:29.533Z,38.78
2019-03-16T19:59:03.868Z,38.90
2019-03-16T20:01:38.262Z,38.78
2019-03-16T20:04:12.495Z,37.90
2019-03-16T20:06:46.631Z,37.55
2019-03-16T20:09:20.820Z,37.95
2019-03-16T20:11:55.102Z,37.65
2019-03-16T20:14:29.098Z,38.33
2019-03-16T20:17:03.349Z,38.00
2019-03-16T20:19:37.288Z,38.23
2019-03-16T20:22:12.389Z,36.65
2019-03-16T20:24:46.550Z,37.35
2019-03-16T20:27:20.868Z,36.10
2019-03-16T20:29:54.867Z,36.77
2019-03-16T20:32:29.038Z,36.28
2019-03-16T20:35:03.113Z,37.48
2019-03-16T20:37:37.153Z,37.13
2019-03-16T20:40:12.266Z,36.42
2019-03-16T20:42:46.483Z,35.68
2019-03-16T20:45:20.883Z,37.00
2019-03-16T20:47:55.127Z,35.17
2019-03-16T20:50:29.319Z,35.08
2019-03-16T20:53:03.403Z,35.13
2019-03-16T20:55:37.599Z,34.90
2019-03-16T20:58:11.807Z,35.05
2019-03-16T21:00:46.033Z,35.88
2019-03-16T21:03:20.332Z,34.70
2019-03-16T21:05:54.620Z,35.23
2019-03-16T21:08:28.926Z,34.55
2019-03-16T21:11:03.129Z,36.00
2019-03-16T21:13:37.244Z,34.58
2019-03-16T21:16:11.330Z,36.08
2019-03-16T21:18:45.489Z,36.55
2019-03-16T21:21:19.709Z,35.28
2019-03-16T21:23:53.996Z,35.63
2019-03-16T21:26:27.931Z,35.33
2019-03-16T21:29:02.045Z,35.15
2019-03-16T21:31:36.185Z,35.95
2019-03-16T21:34:10.428Z,36.40
2019-03-16T21:36:44.572Z,34.88
2019-03-16T21:39:18.827Z,34.98
2019-03-16T21:41:52.861Z,35.28
2019-03-16T21:44:26.947Z,35.65
2019-03-16T21:47:01.149Z,34.95
2019-03-16T21:49:35.426Z,36.58
2019-03-16T21:52:09.780Z,35.40
2019-03-16T21:54:43.884Z,36.10
2019-03-16T21:57:18.096Z,34.60
2019-03-16T21:59:52.159Z,34.48
2019-03-16T22:02:26.357Z,35.40
2019-03-16T22:05:00.584Z,34.35
2019-03-16T22:07:34.705Z,35.43
2019-03-16T22:10:09.160Z,34.75
2019-03-16T22:12:43.369Z,35.55
2019-03-16T22:15:17.679Z,34.78
2019-03-16T22:17:51.888Z,35.85
2019-03-16T22:20:26.077Z,34.38
2019-03-16T22:23:00.430Z,34.65
2019-03-16T22:25:34.725Z,35.03
2019-03-16T22:28:10.291Z,35.20
2019-03-16T22:30:45.157Z,35.40
2019-03-16T22:33:19.702Z,36.35
2019-03-16T22:35:53.831Z,34.25
2019-03-16T22:38:28.259Z,35.45
2019-03-16T22:41:02.505Z,35.85
2019-03-16T22:43:37.226Z,35.15
2019-03-16T22:46:11.301Z,35.70
2019-03-16T22:48:45.716Z,36.70
2019-03-16T22:51:19.953Z,35.40
2019-03-16T22:53:54.311Z,36.38
2019-03-16T22:56:28.569Z,34.88
2019-03-16T22:59:03.047Z,35.83
2019-03-16T23:01:37.335Z,36.65
2019-03-16T23:04:12.079Z,35.85
2019-03-16T23:06:46.263Z,36.90
2019-03-16T23:09:20.589Z,36.03
2019-03-16T23:11:54.906Z,36.30
2019-03-16T23:14:29.065Z,35.92
2019-03-16T23:17:03.254Z,37.00
2019-03-16T23:19:37.543Z,35.90
2019-03-16T23:22:11.677Z,36.50
2019-03-16T23:24:45.950Z,35.60
2019-03-16T23:27:20.187Z,37.08
2019-03-16T23:29:54.585Z,37.00
2019-03-16T23:32:29.714Z,36.77
2019-03-16T23:35:04.112Z,38.08
2019-03-16T23:37:38.345Z,37.28
2019-03-16T23:40:12.931Z,36.53
2019-03-16T23:42:47.486Z,36.70
2019-03-16T23:45:21.873Z,36.90
2019-03-16T23:47:56.998Z,37.93
2019-03-16T23:50:31.289Z,37.48
2019-03-16T23:53:05.477Z,37.48
2019-03-16T23:55:39.703Z,37.40
2019-03-16T23:58:13.879Z,36.98
